Time;durP1;ratioP1;P1;durP2;ratioP2;P2;SDS_P1;SDS_P2;PMS_P1;PMS_P2;Temp;Humidity;BMP_temperature;BMP_pressure;BME280_temperature;BME280_humidity;BME280_pressure;Samples;Min_cycle;Max_cycle;Signal;HPM_P1;HPM_P2
2021/07/09 00:02:03;;;;;;;22.58;7.22;;;27.20;99.90;;;;;;5001679;28;20037;-81
2021/07/09 00:04:31;;;;;;;16.35;6.30;;;27.10;99.90;;;;;;5005892;28;20045;-81
2021/07/09 00:06:56;;;;;;;18.75;6.82;;;27.00;99.90;;;;;;4994260;28;20068;-82
2021/07/09 00:09:25;;;;;;;16.08;6.47;;;27.00;99.90;;;;;;5004536;28;20121;-82
2021/07/09 00:11:52;;;;;;;17.08;7.10;;;27.00;99.90;;;;;;5013630;28;20021;-82
2021/07/09 00:14:22;;;;;;;13.85;6.75;;;26.90;99.90;;;;;;5012084;28;20032;-83
2021/07/09 00:16:48;;;;;;;16.02;6.63;;;27.00;99.90;;;;;;5013797;28;20022;-82
2021/07/09 00:19:15;;;;;;;17.77;7.18;;;27.00;99.90;;;;;;5013268;28;20025;-82
2021/07/09 00:21:44;;;;;;;20.85;7.15;;;26.90;99.90;;;;;;5001364;28;20490;-82
2021/07/09 00:24:12;;;;;;;22.08;7.28;;;26.90;99.90;;;;;;5010481;28;20049;-82
2021/07/09 00:26:38;;;;;;;20.33;7.15;;;26.90;99.90;;;;;;5014173;28;20026;-82
2021/07/09 00:29:04;;;;;;;17.05;7.03;;;26.90;99.90;;;;;;5002014;28;20056;-82
2021/07/09 00:31:31;;;;;;;15.88;6.93;;;26.90;99.90;;;;;;5013250;28;20040;-81
2021/07/09 00:34:02;;;;;;;17.83;6.65;;;26.90;99.90;;;;;;5012017;28;20033;-81
2021/07/09 00:36:28;;;;;;;22.67;7.18;;;26.90;99.90;;;;;;5013426;28;20052;-81
2021/07/09 00:38:54;;;;;;;17.65;8.02;;;26.90;99.90;;;;;;5013048;28;20061;-81
2021/07/09 00:41:20;;;;;;;16.02;6.60;;;26.80;99.90;;;;;;5012682;28;20034;-81
2021/07/09 00:43:46;;;;;;;22.80;7.18;;;26.80;99.90;;;;;;5004937;28;20081;-81
2021/07/09 00:46:13;;;;;;;27.88;7.28;;;26.80;99.90;;;;;;5008695;28;20025;-81
2021/07/09 00:48:41;;;;;;;17.55;6.72;;;26.80;99.90;;;;;;5011456;28;20057;-81
2021/07/09 00:51:10;;;;;;;13.07;5.85;;;26.70;99.90;;;;;;5012856;28;20029;-83
2021/07/09 00:53:36;;;;;;;18.75;5.63;;;26.70;99.90;;;;;;5010946;28;20030;-82
2021/07/09 00:56:05;;;;;;;18.60;5.38;;;26.70;99.90;;;;;;5012972;28;20108;-82
2021/07/09 00:58:32;;;;;;;17.85;5.65;;;26.60;99.90;;;;;;5012591;28;20041;-82
2021/07/09 01:01:00;;;;;;;16.85;6.03;;;26.60;99.90;;;;;;5012668;28;20355;-82
2021/07/09 01:03:25;;;;;;;14.70;5.30;;;26.60;99.90;;;;;;5012633;28;20029;-81
2021/07/09 01:05:51;;;;;;;10.85;5.20;;;26.60;99.90;;;;;;5012987;28;20026;-81
2021/07/09 01:08:18;;;;;;;18.23;6.03;;;26.60;99.90;;;;;;5010589;28;20045;-81
2021/07/09 01:10:44;;;;;;;10.73;5.05;;;26.60;99.90;;;;;;5012565;28;20026;-81
2021/07/09 01:13:14;;;;;;;16.92;6.10;;;26.60;99.90;;;;;;5010491;28;20037;-81
2021/07/09 01:15:40;;;;;;;22.65;6.00;;;26.50;99.90;;;;;;4999172;28;20065;-81
2021/07/09 01:18:08;;;;;;;15.63;5.38;;;26.50;99.90;;;;;;5011610;28;20054;-81
2021/07/09 01:20:33;;;;;;;11.82;5.07;;;26.50;99.90;;;;;;5010825;28;20033;-81
2021/07/09 01:23:01;;;;;;;20.00;5.22;;;26.50;99.90;;;;;;5010654;28;20041;-82
2021/07/09 01:25:28;;;;;;;9.63;4.95;;;26.50;99.90;;;;;;5011985;28;20048;-81
2021/07/09 01:28:01;;;;;;;12.07;4.43;;;26.40;99.90;;;;;;5010553;28;20018;-82
2021/07/09 01:30:27;;;;;;;10.52;3.90;;;26.50;99.90;;;;;;5012189;28;20049;-81
2021/07/09 01:32:55;;;;;;;10.52;3.42;;;26.50;99.90;;;;;;5012049;28;20471;-81
2021/07/09 01:35:23;;;;;;;25.13;3.90;;;26.50;99.90;;;;;;5011906;28;20115;-81
2021/07/09 01:38:03;;;;;;;6.30;3.45;;;26.50;99.90;;;;;;5012103;28;20048;-81
2021/07/09 01:40:30;;;;;;;6.90;3.40;;;26.40;99.90;;;;;;5011576;28;20496;-81
2021/07/09 01:42:55;;;;;;;10.68;3.08;;;26.40;99.90;;;;;;5010861;28;20034;-81
2021/07/09 01:45:22;;;;;;;12.20;3.38;;;26.50;99.90;;;;;;5011220;28;20029;-80
2021/07/09 01:47:49;;;;;;;8.80;3.08;;;26.40;99.90;;;;;;4985416;28;20034;-81
2021/07/09 01:50:16;;;;;;;14.02;3.50;;;26.50;99.90;;;;;;5006901;28;20040;-80
2021/07/09 01:52:42;;;;;;;9.48;3.22;;;26.50;99.90;;;;;;5012080;28;20022;-81
2021/07/09 01:55:12;;;;;;;13.32;3.72;;;26.40;99.90;;;;;;4998870;28;20037;-80
2021/07/09 01:57:38;;;;;;;13.55;4.43;;;26.40;99.90;;;;;;5011506;28;20034;-82
2021/07/09 02:00:13;;;;;;;15.60;4.25;;;26.40;99.90;;;;;;5010260;28;20049;-82
2021/07/09 02:02:40;;;;;;;13.15;3.20;;;26.30;99.90;;;;;;5011466;28;20022;-81
2021/07/09 02:05:09;;;;;;;7.90;2.85;;;26.20;99.90;;;;;;5003559;28;20029;-82
2021/07/09 02:07:35;;;;;;;15.93;3.05;;;26.10;99.90;;;;;;5011471;28;20029;-82
2021/07/09 02:10:01;;;;;;;6.28;2.05;;;26.10;99.90;;;;;;5011623;28;20482;-82
2021/07/09 02:12:28;;;;;;;5.65;2.25;;;26.00;99.90;;;;;;5011455;28;20125;-81
2021/07/09 02:14:54;;;;;;;8.65;2.50;;;25.90;99.90;;;;;;5001249;28;20038;-82
2021/07/09 02:17:21;;;;;;;7.53;2.58;;;25.80;99.90;;;;;;5011541;28;20065;-81
2021/07/09 02:19:51;;;;;;;10.77;2.28;;;25.80;99.90;;;;;;5011531;28;20048;-81
2021/07/09 02:22:19;;;;;;;6.65;2.22;;;25.70;99.90;;;;;;5011726;28;20034;-81
2021/07/09 02:24:48;;;;;;;4.45;2.20;;;25.70;99.90;;;;;;5009561;28;20498;-82
2021/07/09 02:27:16;;;;;;;10.05;1.85;;;25.60;99.90;;;;;;5012502;28;20033;-81
2021/07/09 02:29:42;;;;;;;4.82;2.40;;;25.60;99.90;;;;;;5011492;28;20041;-81
2021/07/09 02:32:10;;;;;;;13.60;2.55;;;25.50;99.90;;;;;;5012345;28;20014;-81
2021/07/09 02:34:37;;;;;;;7.85;2.45;;;25.40;99.90;;;;;;5010155;28;20037;-81
2021/07/09 02:37:04;;;;;;;8.55;2.35;;;25.40;99.90;;;;;;5012144;28;20101;-81
2021/07/09 02:39:30;;;;;;;8.55;2.30;;;25.30;99.90;;;;;;5011181;28;20113;-81
2021/07/09 02:42:00;;;;;;;7.57;2.25;;;25.30;99.90;;;;;;5011425;28;20096;-81
2021/07/09 02:44:26;;;;;;;4.93;2.42;;;25.20;99.90;;;;;;5012265;28;20038;-81
2021/07/09 02:46:53;;;;;;;5.78;1.98;;;25.20;99.90;;;;;;5014573;28;20022;-81
2021/07/09 02:49:20;;;;;;;12.00;2.55;;;25.20;99.90;;;;;;5012193;28;20041;-80
2021/07/09 02:51:46;;;;;;;8.10;2.38;;;25.20;99.90;;;;;;5011811;28;20033;-80
2021/07/09 02:54:12;;;;;;;4.38;2.20;;;25.20;99.90;;;;;;5010646;28;20386;-79
2021/07/09 02:56:37;;;;;;;5.65;2.28;;;25.10;99.90;;;;;;5011999;28;20026;-81
2021/07/09 02:59:06;;;;;;;7.47;2.53;;;25.10;99.90;;;;;;5011876;28;20038;-81
2021/07/09 03:01:31;;;;;;;5.00;2.53;;;25.10;99.90;;;;;;5011902;28;20018;-82
2021/07/09 03:03:57;;;;;;;16.38;3.33;;;25.00;99.90;;;;;;5009763;28;20040;-82
2021/07/09 03:06:23;;;;;;;11.02;2.78;;;24.90;99.90;;;;;;5011859;28;20340;-81
2021/07/09 03:08:49;;;;;;;4.78;3.20;;;24.90;99.90;;;;;;5010215;28;20100;-81
2021/07/09 03:11:18;;;;;;;8.18;3.08;;;24.90;99.90;;;;;;5011937;28;20040;-81
2021/07/09 03:13:44;;;;;;;8.50;2.70;;;24.80;99.90;;;;;;5012573;28;20030;-81
2021/07/09 03:16:10;;;;;;;10.05;3.83;;;24.80;99.90;;;;;;5015460;28;20028;-81
2021/07/09 03:18:38;;;;;;;12.00;3.25;;;24.80;99.90;;;;;;5015266;28;20414;-81
2021/07/09 03:21:03;;;;;;;10.40;2.90;;;24.80;99.90;;;;;;5015107;28;20026;-81
2021/07/09 03:23:29;;;;;;;10.65;3.05;;;24.80;99.90;;;;;;5014878;28;20058;-81
2021/07/09 03:25:57;;;;;;;6.15;2.60;;;24.80;99.90;;;;;;4997980;28;20025;-81
2021/07/09 03:28:23;;;;;;;5.45;2.83;;;24.80;99.90;;;;;;5014805;28;20106;-81
2021/07/09 03:30:49;;;;;;;9.93;3.80;;;24.80;99.90;;;;;;5015039;28;20120;-82
2021/07/09 03:33:14;;;;;;;8.52;2.85;;;24.70;99.90;;;;;;5015538;28;20030;-81
2021/07/09 03:35:40;;;;;;;8.65;2.65;;;24.80;99.90;;;;;;4986890;28;20518;-82
2021/07/09 03:38:08;;;;;;;12.93;2.58;;;24.80;99.90;;;;;;5010722;28;20497;-81
2021/07/09 03:40:34;;;;;;;7.93;2.85;;;24.90;99.90;;;;;;5006250;28;20054;-81
2021/07/09 03:43:01;;;;;;;12.02;3.22;;;24.90;99.90;;;;;;5015220;28;20517;-81
2021/07/09 03:45:26;;;;;;;6.10;2.30;;;24.90;99.90;;;;;;5001383;28;20073;-81
2021/07/09 03:47:52;;;;;;;6.72;2.33;;;24.90;99.90;;;;;;5015380;28;20478;-81
2021/07/09 03:50:18;;;;;;;13.23;2.47;;;25.00;99.90;;;;;;5003009;28;20550;-81
2021/07/09 03:52:43;;;;;;;6.10;2.88;;;25.00;99.90;;;;;;5014368;28;20105;-80
2021/07/09 03:55:09;;;;;;;11.68;2.17;;;25.10;99.90;;;;;;5014243;28;20040;-80
2021/07/09 03:57:36;;;;;;;14.93;2.47;;;25.10;99.90;;;;;;5014921;28;20018;-80
2021/07/09 04:00:03;;;;;;;12.50;2.78;;;25.10;99.90;;;;;;5014652;28;20051;-81
2021/07/09 04:02:29;;;;;;;7.47;2.53;;;25.10;99.90;;;;;;5014831;28;20157;-80
2021/07/09 04:04:54;;;;;;;8.63;2.58;;;25.10;99.90;;;;;;5013860;28;20117;-80
2021/07/09 04:07:20;;;;;;;8.65;2.55;;;25.10;99.90;;;;;;5014309;28;20026;-80
2021/07/09 04:09:48;;;;;;;4.88;2.50;;;25.20;99.90;;;;;;5012602;28;20038;-80
2021/07/09 04:12:14;;;;;;;6.18;2.20;;;25.30;99.90;;;;;;5014467;28;20055;-81
2021/07/09 04:14:39;;;;;;;10.50;3.15;;;25.50;99.90;;;;;;5014425;28;20085;-81
2021/07/09 04:17:07;;;;;;;10.27;2.88;;;25.40;99.90;;;;;;5001506;28;20035;-80
2021/07/09 04:19:33;;;;;;;5.50;2.45;;;25.40;99.90;;;;;;4996522;28;20061;-80
2021/07/09 04:21:59;;;;;;;13.13;2.83;;;25.40;99.90;;;;;;5013777;28;20085;-80
2021/07/09 04:24:24;;;;;;;9.57;3.22;;;25.30;99.90;;;;;;5008804;28;20037;-81
2021/07/09 04:26:50;;;;;;;5.75;2.30;;;25.30;99.90;;;;;;5013518;28;20054;-80
2021/07/09 04:29:15;;;;;;;10.60;3.00;;;25.30;99.90;;;;;;5005547;28;20049;-81
2021/07/09 04:31:41;;;;;;;9.20;3.22;;;25.30;99.90;;;;;;5012172;28;20025;-81
2021/07/09 04:34:07;;;;;;;8.70;2.47;;;25.60;99.90;;;;;;5012199;28;20029;-81
2021/07/09 04:36:32;;;;;;;9.00;3.03;;;26.00;99.90;;;;;;5013300;28;20034;-81
2021/07/09 04:38:58;;;;;;;7.20;3.28;;;26.30;99.90;;;;;;5006889;28;20025;-81
2021/07/09 04:41:24;;;;;;;7.53;3.05;;;26.30;99.90;;;;;;5001410;28;20064;-81
2021/07/09 04:44:07;;;;;;;9.23;3.22;;;26.30;99.90;;;;;;5004558;28;20041;-81
2021/07/09 04:46:33;;;;;;;14.75;3.42;;;26.90;99.90;;;;;;5006925;28;20030;-81
2021/07/09 04:48:59;;;;;;;8.05;2.45;;;27.60;99.90;;;;;;5003452;28;20135;-81
2021/07/09 04:51:24;;;;;;;7.40;2.55;;;28.70;99.90;;;;;;5007999;28;20037;-81
2021/07/09 04:53:50;;;;;;;7.50;2.50;;;29.60;99.90;;;;;;5009582;28;20026;-81
2021/07/09 04:56:16;;;;;;;12.43;2.50;;;29.40;99.90;;;;;;5007647;28;20485;-81
2021/07/09 04:58:41;;;;;;;15.02;2.90;;;28.70;99.90;;;;;;5004793;28;21462;-81
2021/07/09 05:01:07;;;;;;;9.82;2.28;;;28.30;99.90;;;;;;5005383;28;20026;-82
2021/07/09 05:03:33;;;;;;;5.20;2.25;;;27.80;99.90;;;;;;5001200;28;20103;-81
2021/07/09 05:05:58;;;;;;;8.52;2.65;;;27.60;99.90;;;;;;5007522;28;20025;-78
2021/07/09 05:08:24;;;;;;;13.43;2.67;;;28.70;99.90;;;;;;5009300;28;20037;-78
2021/07/09 05:10:49;;;;;;;9.38;2.05;;;29.10;99.90;;;;;;5004468;28;20068;-78
2021/07/09 05:13:16;;;;;;;7.35;2.75;;;30.30;99.90;;;;;;5009595;28;20025;-78
2021/07/09 05:15:43;;;;;;;11.32;2.97;;;31.50;99.90;;;;;;5007851;28;20042;-81
2021/07/09 05:18:09;;;;;;;6.70;2.40;;;32.00;99.90;;;;;;5012198;28;20164;-78
2021/07/09 05:20:34;;;;;;;8.50;2.30;;;31.50;99.90;;;;;;5011141;28;20113;-78
2021/07/09 05:23:00;;;;;;;9.48;2.33;;;31.40;99.90;;;;;;5019116;28;20060;-78
2021/07/09 05:25:26;;;;;;;13.30;3.30;;;30.90;99.90;;;;;;5023851;28;20027;-77
2021/07/09 05:27:52;;;;;;;5.25;2.70;;;30.20;99.90;;;;;;5015043;28;20030;-78
2021/07/09 05:30:17;;;;;;;12.73;2.45;;;29.60;99.90;;;;;;5009109;28;20120;-77
2021/07/09 05:32:44;;;;;;;7.45;2.83;;;30.70;99.90;;;;;;5013425;28;20026;-77
2021/07/09 05:35:17;;;;;;;6.30;2.65;;;32.60;99.90;;;;;;5011686;28;20431;-78
2021/07/09 05:37:46;;;;;;;9.40;2.30;;;33.80;99.90;;;;;;5009753;28;20486;-79
2021/07/09 05:40:11;;;;;;;9.60;2.30;;;35.00;99.90;;;;;;5008422;28;20030;-79
2021/07/09 05:42:37;;;;;;;10.63;2.28;;;34.90;99.90;;;;;;5011825;28;20072;-80
2021/07/09 05:45:03;;;;;;;11.35;2.22;;;35.50;99.90;;;;;;5012199;28;20021;-79
2021/07/09 05:47:31;;;;;;;6.38;1.92;;;36.10;99.90;;;;;;5011913;28;20029;-78
2021/07/09 05:49:57;;;;;;;9.85;2.20;;;36.60;99.90;;;;;;5018531;28;20040;-78
2021/07/09 05:52:23;;;;;;;8.90;1.63;;;37.80;99.90;;;;;;5020885;28;20025;-82
2021/07/09 05:54:49;;;;;;;8.93;1.85;;;39.00;99.90;;;;;;5010469;28;20124;-80
2021/07/09 05:57:14;;;;;;;5.10;1.70;;;39.40;98.70;;;;;;4999891;28;20026;-81
2021/07/09 05:59:40;;;;;;;9.57;1.77;;;39.40;97.70;;;;;;5008237;28;20088;-81
2021/07/09 06:02:06;;;;;;;15.52;2.28;;;40.10;96.50;;;;;;4998899;28;20030;-80
2021/07/09 06:04:32;;;;;;;7.68;1.50;;;40.40;95.60;;;;;;5008062;28;20033;-81
2021/07/09 06:06:58;;;;;;;12.65;2.20;;;39.00;95.80;;;;;;5007173;28;20022;-81
2021/07/09 06:09:23;;;;;;;6.30;1.60;;;37.20;97.30;;;;;;5009299;28;20069;-80
2021/07/09 06:11:50;;;;;;;8.80;1.60;;;35.40;99.10;;;;;;5008590;28;20034;-81
2021/07/09 06:14:16;;;;;;;13.50;1.70;;;34.10;99.90;;;;;;5001773;28;20033;-81
2021/07/09 06:16:41;;;;;;;7.55;1.88;;;32.90;99.90;;;;;;5008332;28;20026;-80
2021/07/09 06:19:07;;;;;;;10.10;2.22;;;32.00;99.90;;;;;;5005280;28;20026;-80
2021/07/09 06:21:33;;;;;;;12.50;2.25;;;31.60;99.90;;;;;;5007621;28;20412;-81
2021/07/09 06:24:02;;;;;;;4.28;1.08;;;31.20;99.90;;;;;;5004846;28;20146;-80
2021/07/09 06:26:27;;;;;;;1.98;1.13;;;32.00;99.90;;;;;;5008090;28;20030;-80
2021/07/09 06:28:53;;;;;;;5.60;1.00;;;34.70;99.90;;;;;;5007776;28;20076;-80
2021/07/09 06:31:19;;;;;;;3.67;1.20;;;37.40;97.30;;;;;;5012260;28;20084;-80
2021/07/09 06:33:45;;;;;;;5.47;1.42;;;39.50;94.50;;;;;;5012127;28;20418;-80
2021/07/09 06:36:10;;;;;;;4.35;1.00;;;41.00;92.20;;;;;;5011336;28;20398;-80
2021/07/09 06:38:36;;;;;;;8.32;1.05;;;42.30;90.10;;;;;;5009633;28;20031;-80
2021/07/09 06:41:02;;;;;;;3.75;1.10;;;43.10;85.80;;;;;;4995548;28;20509;-81
2021/07/09 06:43:28;;;;;;;3.08;0.98;;;43.80;82.50;;;;;;5000638;28;20466;-80
2021/07/09 06:45:53;;;;;;;4.57;1.05;;;44.20;80.90;;;;;;4996406;28;20046;-81
2021/07/09 06:48:19;;;;;;;3.08;1.13;;;44.80;79.10;;;;;;5000777;28;20092;-81
2021/07/09 06:50:45;;;;;;;8.52;1.55;;;44.90;77.20;;;;;;5008687;28;20030;-81
2021/07/09 06:53:10;;;;;;;5.28;1.40;;;45.10;75.50;;;;;;5000077;28;20026;-81
2021/07/09 06:55:36;;;;;;;9.15;1.52;;;45.30;74.70;;;;;;5002492;28;20370;-81
2021/07/09 06:58:03;;;;;;;3.53;0.82;;;45.20;74.30;;;;;;5017759;28;20022;-80
2021/07/09 07:00:28;;;;;;;8.48;0.90;;;44.70;74.10;;;;;;5008276;28;20018;-82
2021/07/09 07:02:54;;;;;;;8.63;1.17;;;43.80;73.60;;;;;;5009768;28;20022;-81
2021/07/09 07:05:20;;;;;;;5.45;1.00;;;42.40;74.70;;;;;;5006163;28;20039;-81
2021/07/09 07:07:45;;;;;;;3.92;0.93;;;40.80;77.40;;;;;;5009677;28;20034;-80
2021/07/09 07:10:12;;;;;;;3.35;1.17;;;39.70;79.70;;;;;;5005069;28;20041;-82
2021/07/09 07:12:38;;;;;;;4.15;1.10;;;38.70;81.70;;;;;;5003584;28;20101;-79
2021/07/09 07:15:06;;;;;;;4.10;1.30;;;37.90;82.00;;;;;;5009139;28;20113;-80
2021/07/09 07:17:32;;;;;;;9.18;1.10;;;37.20;83.30;;;;;;5008796;28;20022;-80
2021/07/09 07:19:57;;;;;;;8.95;1.17;;;36.30;84.90;;;;;;5009512;28;20033;-81
2021/07/09 07:22:26;;;;;;;5.55;1.33;;;35.70;86.60;;;;;;5013277;28;20085;-79
2021/07/09 07:24:52;;;;;;;28.20;2.10;;;35.30;88.60;;;;;;5009591;28;20030;-82
2021/07/09 07:27:24;;;;;;;6.90;1.33;;;35.10;90.00;;;;;;5006151;28;20122;-80
2021/07/09 07:29:50;;;;;;;6.10;1.00;;;35.00;88.50;;;;;;5010746;28;20123;-81
2021/07/09 07:32:16;;;;;;;8.43;1.30;;;34.90;89.40;;;;;;5015707;28;20080;-82
2021/07/09 07:34:42;;;;;;;3.13;1.10;;;34.60;89.90;;;;;;5006084;28;20034;-84
2021/07/09 07:37:09;;;;;;;4.60;1.30;;;34.40;90.30;;;;;;5007783;28;20093;-84
2021/07/09 07:39:35;;;;;;;6.40;1.35;;;34.30;90.20;;;;;;5014997;28;20087;-83
2021/07/09 07:42:02;;;;;;;7.57;1.73;;;34.20;90.60;;;;;;5026788;28;20025;-83
2021/07/09 07:44:28;;;;;;;9.13;1.50;;;34.10;90.60;;;;;;5023870;28;20037;-81
2021/07/09 07:46:55;;;;;;;13.40;1.30;;;34.10;91.00;;;;;;5025277;28;20030;-81
2021/07/09 07:49:22;;;;;;;4.63;0.88;;;34.30;90.40;;;;;;5003550;28;20035;-81
2021/07/09 07:51:50;;;;;;;3.28;1.23;;;34.30;90.40;;;;;;5028474;28;20052;-82
2021/07/09 07:54:16;;;;;;;2.90;1.10;;;34.20;90.30;;;;;;5030535;28;20064;-82
2021/07/09 07:56:42;;;;;;;5.97;1.35;;;33.90;90.70;;;;;;5032409;28;20472;-81
2021/07/09 07:59:07;;;;;;;2.40;1.10;;;33.70;90.80;;;;;;5000147;28;20118;-81
2021/07/09 08:01:33;;;;;;;4.15;1.42;;;33.40;91.00;;;;;;5019080;28;20084;-81
2021/07/09 08:03:59;;;;;;;8.98;1.13;;;33.30;91.50;;;;;;5013960;28;20060;-81
2021/07/09 08:06:27;;;;;;;3.40;1.23;;;33.20;91.40;;;;;;5022431;28;20041;-81
2021/07/09 08:08:53;;;;;;;3.75;1.00;;;33.00;91.30;;;;;;5027189;28;20108;-81
2021/07/09 08:11:19;;;;;;;2.97;1.10;;;32.90;91.60;;;;;;5018808;28;20196;-81
2021/07/09 08:13:44;;;;;;;3.60;1.10;;;33.00;92.10;;;;;;5032018;28;20014;-81
2021/07/09 08:16:11;;;;;;;7.28;1.17;;;33.10;91.30;;;;;;5027035;28;20528;-81
2021/07/09 08:18:37;;;;;;;4.45;1.17;;;33.10;91.50;;;;;;5014804;28;20033;-81
2021/07/09 08:21:03;;;;;;;3.55;1.17;;;32.90;91.80;;;;;;5026755;28;20518;-82
2021/07/09 08:23:29;;;;;;;8.65;1.35;;;32.70;91.90;;;;;;5018453;28;20041;-81
2021/07/09 08:25:56;;;;;;;7.47;1.92;;;32.60;92.00;;;;;;5007801;28;20033;-81
2021/07/09 08:28:22;;;;;;;5.05;1.70;;;32.70;91.80;;;;;;5004715;28;20100;-82
2021/07/09 08:30:48;;;;;;;5.28;1.67;;;32.70;91.40;;;;;;5009771;28;20034;-82
2021/07/09 08:33:13;;;;;;;5.15;1.30;;;32.60;91.70;;;;;;5011795;28;20026;-83
2021/07/09 08:35:39;;;;;;;3.53;1.10;;;32.90;91.80;;;;;;5010383;28;20034;-83
2021/07/09 08:38:05;;;;;;;3.17;1.27;;;32.90;91.40;;;;;;5011963;28;20494;-83
2021/07/09 08:40:31;;;;;;;5.00;1.25;;;33.00;91.10;;;;;;5013588;28;20030;-82
2021/07/09 08:42:57;;;;;;;8.32;1.13;;;33.00;91.10;;;;;;5013768;28;20022;-83
2021/07/09 08:45:22;;;;;;;1.98;1.10;;;33.10;90.90;;;;;;5012858;28;20104;-83
2021/07/09 08:47:49;;;;;;;6.88;1.40;;;33.40;91.00;;;;;;5013424;28;20057;-81
2021/07/09 08:50:15;;;;;;;9.13;1.40;;;33.70;90.60;;;;;;5013219;28;20378;-81
2021/07/09 08:52:41;;;;;;;5.30;1.65;;;33.60;90.90;;;;;;5013298;28;20026;-82
2021/07/09 08:55:12;;;;;;;5.28;1.33;;;33.50;91.20;;;;;;5013154;28;20029;-81
2021/07/09 08:57:41;;;;;;;5.37;1.17;;;33.50;90.80;;;;;;5013761;28;20494;-81
2021/07/09 09:00:27;;;;;;;5.47;1.30;;;33.10;90.70;;;;;;5018791;28;20053;-81
2021/07/09 09:02:54;;;;;;;11.45;1.55;;;32.80;90.70;;;;;;5005231;28;20076;-81
2021/07/09 09:05:25;;;;;;;3.47;1.10;;;32.40;90.80;;;;;;4993648;28;20030;-82
2021/07/09 09:08:00;;;;;;;;;;;32.40;90.50;;;;;;5004413;28;20517;-81
2021/07/09 09:10:34;;;;;;;3.08;1.10;;;32.30;90.40;;;;;;5004597;28;19917;-82
2021/07/09 09:13:22;;;;;;;10.63;1.40;;;32.40;90.60;;;;;;5010617;28;20037;-82
2021/07/09 09:15:59;;;;;;;2.78;1.10;;;32.50;91.00;;;;;;4991256;28;20033;-82
2021/07/09 09:18:26;;;;;;;3.88;1.10;;;32.40;91.00;;;;;;5002020;28;20025;-81
2021/07/09 09:21:09;;;;;;;2.22;0.90;;;32.40;90.90;;;;;;5000671;28;20018;-79
2021/07/09 09:23:51;;;;;;;4.32;1.35;;;32.50;90.70;;;;;;5002472;28;20046;-80
2021/07/09 09:26:47;;;;;;;2.78;1.05;;;32.40;90.80;;;;;;5006469;28;20068;-79
2021/07/09 09:29:35;;;;;;;11.43;1.30;;;32.40;90.70;;;;;;5002519;28;20069;-81
2021/07/09 09:32:07;;;;;;;2.55;0.88;;;32.50;91.00;;;;;;5027580;28;20029;-81
2021/07/09 09:34:41;;;;;;;5.22;1.10;;;32.50;90.40;;;;;;5026627;28;20477;-79
2021/07/09 09:37:12;;;;;;;2.95;1.00;;;32.70;90.80;;;;;;5025548;28;20021;-81
2021/07/09 09:39:45;;;;;;;4.70;0.70;;;32.80;90.80;;;;;;5025923;28;20125;-80
2021/07/09 09:42:18;;;;;;;2.03;0.90;;;33.00;90.40;;;;;;5028467;28;20013;-81
2021/07/09 09:44:59;;;;;;;2.17;0.80;;;33.10;90.30;;;;;;5028268;28;20040;-80
2021/07/09 09:47:29;;;;;;;2.13;0.90;;;32.60;91.10;;;;;;5023520;28;20540;-82
2021/07/09 09:49:57;;;;;;;6.78;1.10;;;32.30;90.90;;;;;;5023643;28;20076;-82
2021/07/09 09:52:37;;;;;;;5.40;0.70;;;32.10;91.50;;;;;;5025154;28;20025;-82
2021/07/09 09:55:09;;;;;;;2.40;0.70;;;32.00;91.40;;;;;;5024917;28;20170;-82
2021/07/09 09:57:35;;;;;;;;;;;32.00;91.00;;;;;;5028459;28;20021;-82
2021/07/09 10:00:02;;;;;;;1.50;0.68;;;32.10;89.20;;;;;;5029066;28;20316;-82
2021/07/09 10:02:28;;;;;;;2.17;0.82;;;32.20;89.20;;;;;;5029130;28;20033;-81
2021/07/09 10:04:54;;;;;;;4.47;1.00;;;32.10;89.00;;;;;;5028961;28;20030;-81
2021/07/09 10:07:20;;;;;;;2.20;0.90;;;31.90;89.60;;;;;;5019476;28;20087;-83
2021/07/09 10:09:46;;;;;;;3.95;0.90;;;31.60;90.50;;;;;;5006358;28;20061;-81
2021/07/09 10:12:19;;;;;;;10.45;1.00;;;31.60;90.70;;;;;;5001488;28;20101;-82
2021/07/09 10:14:46;;;;;;;4.75;1.33;;;31.70;90.60;;;;;;5012640;28;20850;-81
2021/07/09 10:17:15;;;;;;;1.05;0.50;;;31.70;90.10;;;;;;5007195;28;20030;-83
2021/07/09 10:19:43;;;;;;;1.50;0.60;;;31.40;88.80;;;;;;5025726;28;20026;-81
2021/07/09 10:22:10;;;;;;;1.92;0.70;;;31.20;90.70;;;;;;5020045;28;20025;-81
2021/07/09 10:24:44;;;;;;;2.53;0.60;;;31.00;91.00;;;;;;5005154;28;20053;-81
2021/07/09 10:27:20;;;;;;;1.90;0.52;;;31.00;90.60;;;;;;5025790;28;20017;-81
2021/07/09 10:29:48;;;;;;;11.50;1.30;;;31.00;90.60;;;;;;5009935;28;20033;-80
2021/07/09 10:32:31;;;;;;;6.20;0.77;;;31.00;90.40;;;;;;5006808;28;20097;-81
2021/07/09 10:34:59;;;;;;;2.05;0.63;;;31.00;90.80;;;;;;5004218;28;20081;-80
2021/07/09 10:37:29;;;;;;;3.00;0.65;;;30.90;90.50;;;;;;4995641;28;20368;-80
2021/07/09 10:40:19;;;;;;;1.35;0.63;;;30.80;90.90;;;;;;4995283;28;20042;-80
2021/07/09 10:42:47;;;;;;;4.50;0.60;;;30.80;91.00;;;;;;4998268;28;20034;-78
2021/07/09 10:45:12;;;;;;;1.02;0.52;;;30.90;90.80;;;;;;5017247;28;20550;-80
2021/07/09 10:48:10;;;;;;;3.85;0.90;;;31.00;91.20;;;;;;5020063;28;20033;-81
2021/07/09 10:50:53;;;;;;;1.92;0.77;;;30.90;91.50;;;;;;4998424;28;20034;-81
2021/07/09 10:53:23;;;;;;;5.47;0.75;;;30.80;91.20;;;;;;5001629;28;20029;-81
2021/07/09 10:56:12;;;;;;;4.22;0.95;;;30.60;91.50;;;;;;5002354;28;20026;-81
2021/07/09 10:58:45;;;;;;;1.27;0.88;;;30.40;92.00;;;;;;5004837;28;20097;-81
2021/07/09 11:01:18;;;;;;;3.20;0.80;;;30.50;91.90;;;;;;5008206;28;20430;-80
2021/07/09 11:03:53;;;;;;;2.33;0.70;;;30.70;91.30;;;;;;5027053;28;20025;-80
2021/07/09 11:06:33;;;;;;;1.15;0.60;;;30.80;91.30;;;;;;5026837;28;20096;-81
2021/07/09 11:09:07;;;;;;;4.80;0.63;;;30.70;91.20;;;;;;5019387;28;20034;-81
2021/07/09 11:11:46;;;;;;;2.50;0.85;;;30.70;91.50;;;;;;5025687;28;20034;-80
2021/07/09 11:14:15;;;;;;;8.10;0.95;;;30.70;91.80;;;;;;5022558;28;20025;-80
2021/07/09 11:16:47;;;;;;;2.00;0.70;;;30.70;91.50;;;;;;5024063;28;20626;-79
2021/07/09 11:19:27;;;;;;;4.10;1.10;;;30.80;91.60;;;;;;5023199;28;20022;-80
2021/07/09 11:21:56;;;;;;;1.38;0.50;;;30.90;92.10;;;;;;5028561;28;20016;-79
2021/07/09 11:24:28;;;;;;;4.70;0.70;;;30.80;91.30;;;;;;5023972;28;20065;-81
2021/07/09 11:27:01;;;;;;;5.93;1.08;;;30.60;91.60;;;;;;5022235;28;20017;-80
2021/07/09 11:29:41;;;;;;;3.10;0.80;;;30.40;91.50;;;;;;5019320;28;20383;-81
2021/07/09 11:32:07;;;;;;;7.75;0.93;;;30.30;91.60;;;;;;5026779;28;20022;-81
2021/07/09 11:34:36;;;;;;;1.60;0.80;;;30.40;91.80;;;;;;5029372;28;20048;-81
2021/07/09 11:37:09;;;;;;;1.58;0.65;;;30.60;91.50;;;;;;5022929;28;20037;-81
2021/07/09 11:39:40;;;;;;;5.93;0.70;;;30.70;91.50;;;;;;5024610;28;20474;-81
2021/07/09 11:42:10;;;;;;;3.72;0.82;;;30.80;91.60;;;;;;5028253;28;20057;-81
2021/07/09 11:44:51;;;;;;;8.18;0.77;;;30.70;91.30;;;;;;5028208;28;20083;-81
2021/07/09 11:47:18;;;;;;;4.45;1.13;;;30.80;91.80;;;;;;5028766;28;20021;-82
2021/07/09 11:49:53;;;;;;;13.50;1.52;;;30.90;91.90;;;;;;5032767;28;20037;-80
2021/07/09 11:52:24;;;;;;;5.28;0.90;;;30.90;91.90;;;;;;5021897;28;20019;-81
2021/07/09 11:54:51;;;;;;;1.73;0.50;;;30.80;91.90;;;;;;5027565;28;20486;-80
2021/07/09 11:57:29;;;;;;;2.78;0.70;;;30.70;92.40;;;;;;5017464;28;20112;-81
2021/07/09 12:00:00;;;;;;;7.68;0.90;;;30.70;92.30;;;;;;5028895;28;20021;-81
2021/07/09 12:02:27;;;;;;;2.47;0.80;;;30.60;92.50;;;;;;5011475;28;20358;-81
2021/07/09 12:04:56;;;;;;;3.00;0.90;;;30.50;93.60;;;;;;5030146;28;20021;-82
2021/07/09 12:07:31;;;;;;;7.05;2.40;;;30.40;93.80;;;;;;5028923;28;20351;-81
2021/07/09 12:09:59;;;;;;;3.63;2.28;;;30.30;94.10;;;;;;5031681;28;20057;-81
2021/07/09 12:12:30;;;;;;;5.47;2.30;;;30.00;94.40;;;;;;5027044;28;20022;-82
2021/07/09 12:14:57;;;;;;;;;;;29.90;94.60;;;;;;5025056;28;20393;-81
2021/07/09 12:17:25;;;;;;;5.75;2.17;;;29.80;95.20;;;;;;5024424;28;19906;-81
2021/07/09 12:20:04;;;;;;;2.90;1.70;;;29.70;95.70;;;;;;5029940;28;20087;-81
2021/07/09 12:22:39;;;;;;;4.78;1.10;;;29.70;95.80;;;;;;5022845;28;20106;-81
2021/07/09 12:25:16;;;;;;;5.28;1.52;;;29.60;95.70;;;;;;5022000;28;20386;-81
2021/07/09 12:27:44;;;;;;;2.70;1.50;;;29.60;95.70;;;;;;5024663;28;20032;-81
2021/07/09 12:30:18;;;;;;;3.10;1.33;;;29.40;95.60;;;;;;5023372;28;20548;-80
2021/07/09 12:32:48;;;;;;;2.67;1.00;;;29.40;96.00;;;;;;5030763;28;20036;-81
2021/07/09 12:35:14;;;;;;;4.53;1.67;;;29.40;95.60;;;;;;5026682;28;20087;-82
2021/07/09 12:37:41;;;;;;;8.35;1.42;;;29.30;96.60;;;;;;5013935;28;20052;-79
2021/07/09 12:40:12;;;;;;;4.47;1.45;;;29.20;96.70;;;;;;5032523;28;20021;-79
2021/07/09 12:42:38;;;;;;;5.40;2.03;;;29.20;96.50;;;;;;5027827;28;20032;-80
2021/07/09 12:45:05;;;;;;;14.90;1.95;;;29.10;96.10;;;;;;5023493;28;20030;-79
2021/07/09 12:47:35;;;;;;;2.53;1.25;;;29.10;96.40;;;;;;5030017;28;20021;-80
2021/07/09 12:50:22;;;;;;;2.10;1.15;;;29.00;96.10;;;;;;5028002;28;20111;-80
2021/07/09 12:52:49;;;;;;;5.47;1.10;;;29.00;97.00;;;;;;5025405;28;20025;-82